sensor_id;sensor_type;location;lat;lon;timestamp;temperature;humidity
17148;DHT22;8689;47.364;8.796;2023-12-28T00:00:17;1.60;99.90
17148;DHT22;8689;47.364;8.796;2023-12-28T00:02:46;1.60;99.90
17148;DHT22;8689;47.364;8.796;2023-12-28T00:05:13;1.60;99.90
17148;DHT22;8689;47.364;8.796;2023-12-28T00:07:41;1.70;99.90
17148;DHT22;8689;47.364;8.796;2023-12-28T00:10:09;1.60;99.90
17148;DHT22;8689;47.364;8.796;2023-12-28T00:12:37;1.50;99.90
17148;DHT22;8689;47.364;8.796;2023-12-28T00:15:04;1.40;99.90
17148;DHT22;8689;47.364;8.796;2023-12-28T00:17:32;1.30;99.90
17148;DHT22;8689;47.364;8.796;2023-12-28T00:20:00;1.30;99.90
17148;DHT22;8689;47.364;8.796;2023-12-28T00:22:27;1.20;99.90
17148;DHT22;8689;47.364;8.796;2023-12-28T00:24:55;1.30;99.90
17148;DHT22;8689;47.364;8.796;2023-12-28T00:27:22;1.30;99.90
17148;DHT22;8689;47.364;8.796;2023-12-28T00:29:49;1.30;99.90
17148;DHT22;8689;47.364;8.796;2023-12-28T00:32:16;1.30;99.90
17148;DHT22;8689;47.364;8.796;2023-12-28T00:34:44;1.50;99.90
17148;DHT22;8689;47.364;8.796;2023-12-28T00:37:12;1.80;99.90
17148;DHT22;8689;47.364;8.796;2023-12-28T00:39:40;1.90;99.90
17148;DHT22;8689;47.364;8.796;2023-12-28T00:42:07;1.90;99.90
17148;DHT22;8689;47.364;8.796;2023-12-28T00:44:35;1.70;99.90
17148;DHT22;8689;47.364;8.796;2023-12-28T00:47:03;1.50;99.90
17148;DHT22;8689;47.364;8.796;2023-12-28T00:49:32;1.60;99.90
17148;DHT22;8689;47.364;8.796;2023-12-28T00:51:59;1.90;99.90
17148;DHT22;8689;47.364;8.796;2023-12-28T00:54:28;1.90;99.90
17148;DHT22;8689;47.364;8.796;2023-12-28T00:56:55;1.80;99.90
17148;DHT22;8689;47.364;8.796;2023-12-28T00:59:23;1.80;99.90
17148;DHT22;8689;47.364;8.796;2023-12-28T01:01:50;1.60;99.90
17148;DHT22;8689;47.364;8.796;2023-12-28T01:04:17;1.50;99.90
17148;DHT22;8689;47.364;8.796;2023-12-28T01:06:45;1.70;99.90
17148;DHT22;8689;47.364;8.796;2023-12-28T01:09:11;1.90;99.90
17148;DHT22;8689;47.364;8.796;2023-12-28T01:11:40;2.00;99.90
17148;DHT22;8689;47.364;8.796;2023-12-28T01:14:07;2.10;99.90
17148;DHT22;8689;47.364;8.796;2023-12-28T01:16:34;2.20;99.90
17148;DHT22;8689;47.364;8.796;2023-12-28T01:19:05;2.20;99.90
17148;DHT22;8689;47.364;8.796;2023-12-28T01:21:32;2.20;99.90
17148;DHT22;8689;47.364;8.796;2023-12-28T01:24:00;2.10;99.90
17148;DHT22;8689;47.364;8.796;2023-12-28T01:26:27;2.10;99.90
17148;DHT22;8689;47.364;8.796;2023-12-28T01:28:55;2.10;99.90
17148;DHT22;8689;47.364;8.796;2023-12-28T01:31:23;2.00;99.90
17148;DHT22;8689;47.364;8.796;2023-12-28T01:33:50;2.10;99.90
17148;DHT22;8689;47.364;8.796;2023-12-28T01:36:18;2.20;99.90
17148;DHT22;8689;47.364;8.796;2023-12-28T01:38:45;2.20;99.90
17148;DHT22;8689;47.364;8.796;2023-12-28T01:41:12;2.10;99.90
17148;DHT22;8689;47.364;8.796;2023-12-28T01:43:40;2.10;99.90
17148;DHT22;8689;47.364;8.796;2023-12-28T01:46:14;2.00;99.90
17148;DHT22;8689;47.364;8.796;2023-12-28T01:48:45;2.10;99.90
17148;DHT22;8689;47.364;8.796;2023-12-28T01:51:15;2.30;99.90
17148;DHT22;8689;47.364;8.796;2023-12-28T01:53:43;2.40;99.90
17148;DHT22;8689;47.364;8.796;2023-12-28T01:56:10;2.40;99.90
17148;DHT22;8689;47.364;8.796;2023-12-28T01:58:38;2.30;99.90
17148;DHT22;8689;47.364;8.796;2023-12-28T02:01:07;2.40;99.90
17148;DHT22;8689;47.364;8.796;2023-12-28T02:03:35;2.50;99.90
17148;DHT22;8689;47.364;8.796;2023-12-28T02:06:03;2.80;99.90
17148;DHT22;8689;47.364;8.796;2023-12-28T02:08:32;3.00;99.90
17148;DHT22;8689;47.364;8.796;2023-12-28T02:10:59;2.90;99.90
17148;DHT22;8689;47.364;8.796;2023-12-28T02:13:26;2.90;99.90
17148;DHT22;8689;47.364;8.796;2023-12-28T02:15:57;3.50;99.90
17148;DHT22;8689;47.364;8.796;2023-12-28T02:18:30;4.10;96.20
17148;DHT22;8689;47.364;8.796;2023-12-28T02:21:03;4.50;94.80
17148;DHT22;8689;47.364;8.796;2023-12-28T02:23:32;4.60;96.30
17148;DHT22;8689;47.364;8.796;2023-12-28T02:26:01;4.60;92.70
17148;DHT22;8689;47.364;8.796;2023-12-28T02:28:28;4.60;93.10
17148;DHT22;8689;47.364;8.796;2023-12-28T02:30:55;4.50;92.90
17148;DHT22;8689;47.364;8.796;2023-12-28T02:33:26;4.70;91.60
17148;DHT22;8689;47.364;8.796;2023-12-28T02:35:57;4.80;91.30
17148;DHT22;8689;47.364;8.796;2023-12-28T02:38:27;5.00;90.80
17148;DHT22;8689;47.364;8.796;2023-12-28T02:40:56;5.00;90.80
17148;DHT22;8689;47.364;8.796;2023-12-28T02:43:27;4.90;92.80
17148;DHT22;8689;47.364;8.796;2023-12-28T02:45:54;4.70;92.40
17148;DHT22;8689;47.364;8.796;2023-12-28T02:48:21;4.40;93.10
17148;DHT22;8689;47.364;8.796;2023-12-28T02:50:49;4.20;95.60
17148;DHT22;8689;47.364;8.796;2023-12-28T02:53:16;4.10;93.40
17148;DHT22;8689;47.364;8.796;2023-12-28T02:55:43;4.20;92.40
17148;DHT22;8689;47.364;8.796;2023-12-28T02:58:10;4.20;94.60
17148;DHT22;8689;47.364;8.796;2023-12-28T03:00:39;4.10;93.30
17148;DHT22;8689;47.364;8.796;2023-12-28T03:03:07;4.00;94.60
17148;DHT22;8689;47.364;8.796;2023-12-28T03:05:35;4.40;90.80
17148;DHT22;8689;47.364;8.796;2023-12-28T03:08:02;5.20;86.60
17148;DHT22;8689;47.364;8.796;2023-12-28T03:10:30;5.60;83.10
17148;DHT22;8689;47.364;8.796;2023-12-28T03:12:57;6.00;83.20
17148;DHT22;8689;47.364;8.796;2023-12-28T03:15:24;6.00;83.60
17148;DHT22;8689;47.364;8.796;2023-12-28T03:17:53;5.80;87.80
17148;DHT22;8689;47.364;8.796;2023-12-28T03:20:20;5.40;88.60
17148;DHT22;8689;47.364;8.796;2023-12-28T03:22:48;4.90;90.90
17148;DHT22;8689;47.364;8.796;2023-12-28T03:25:15;4.50;91.80
17148;DHT22;8689;47.364;8.796;2023-12-28T03:27:42;4.10;94.30
17148;DHT22;8689;47.364;8.796;2023-12-28T03:30:11;3.70;95.50
17148;DHT22;8689;47.364;8.796;2023-12-28T03:32:38;3.30;95.50
17148;DHT22;8689;47.364;8.796;2023-12-28T03:35:07;3.10;97.40
17148;DHT22;8689;47.364;8.796;2023-12-28T03:37:35;2.80;96.30
17148;DHT22;8689;47.364;8.796;2023-12-28T03:40:03;2.60;98.10
17148;DHT22;8689;47.364;8.796;2023-12-28T03:42:31;2.50;98.80
17148;DHT22;8689;47.364;8.796;2023-12-28T03:44:58;2.30;99.90
17148;DHT22;8689;47.364;8.796;2023-12-28T03:47:26;2.10;99.90
17148;DHT22;8689;47.364;8.796;2023-12-28T03:49:54;2.00;99.90
17148;DHT22;8689;47.364;8.796;2023-12-28T03:52:26;1.90;99.90
17148;DHT22;8689;47.364;8.796;2023-12-28T03:54:55;1.80;99.90
17148;DHT22;8689;47.364;8.796;2023-12-28T03:57:23;1.70;99.90
17148;DHT22;8689;47.364;8.796;2023-12-28T03:59:50;1.70;99.90
17148;DHT22;8689;47.364;8.796;2023-12-28T04:02:17;1.60;99.90
17148;DHT22;8689;47.364;8.796;2023-12-28T04:04:44;1.60;99.90
17148;DHT22;8689;47.364;8.796;2023-12-28T04:07:11;1.50;99.90
17148;DHT22;8689;47.364;8.796;2023-12-28T04:09:40;1.50;99.90
17148;DHT22;8689;47.364;8.796;2023-12-28T04:12:07;1.50;99.90
17148;DHT22;8689;47.364;8.796;2023-12-28T04:14:35;1.60;99.90
17148;DHT22;8689;47.364;8.796;2023-12-28T04:17:02;1.60;99.90
17148;DHT22;8689;47.364;8.796;2023-12-28T04:19:31;1.50;99.90
17148;DHT22;8689;47.364;8.796;2023-12-28T04:21:58;1.40;99.90
17148;DHT22;8689;47.364;8.796;2023-12-28T04:24:25;1.30;99.90
17148;DHT22;8689;47.364;8.796;2023-12-28T04:26:54;1.20;99.90
17148;DHT22;8689;47.364;8.796;2023-12-28T04:29:22;1.20;99.90
17148;DHT22;8689;47.364;8.796;2023-12-28T04:31:50;1.10;99.90
17148;DHT22;8689;47.364;8.796;2023-12-28T04:34:17;1.20;99.90
17148;DHT22;8689;47.364;8.796;2023-12-28T04:36:44;1.20;99.90
17148;DHT22;8689;47.364;8.796;2023-12-28T04:39:12;1.10;99.90
17148;DHT22;8689;47.364;8.796;2023-12-28T04:41:40;1.00;99.90
17148;DHT22;8689;47.364;8.796;2023-12-28T04:44:09;1.00;99.90
17148;DHT22;8689;47.364;8.796;2023-12-28T04:46:38;1.10;99.90
17148;DHT22;8689;47.364;8.796;2023-12-28T04:49:10;1.30;99.90
17148;DHT22;8689;47.364;8.796;2023-12-28T04:51:42;1.30;99.90
17148;DHT22;8689;47.364;8.796;2023-12-28T04:54:10;1.30;99.90
17148;DHT22;8689;47.364;8.796;2023-12-28T04:56:37;1.50;99.90
17148;DHT22;8689;47.364;8.796;2023-12-28T04:59:04;1.50;99.90
17148;DHT22;8689;47.364;8.796;2023-12-28T05:01:33;1.50;99.90
17148;DHT22;8689;47.364;8.796;2023-12-28T05:04:01;1.50;99.90
17148;DHT22;8689;47.364;8.796;2023-12-28T05:06:28;1.60;99.90
17148;DHT22;8689;47.364;8.796;2023-12-28T05:08:56;1.60;99.90
17148;DHT22;8689;47.364;8.796;2023-12-28T05:11:23;1.60;99.90
17148;DHT22;8689;47.364;8.796;2023-12-28T05:13:50;1.60;99.90
17148;DHT22;8689;47.364;8.796;2023-12-28T05:16:17;1.40;99.90
17148;DHT22;8689;47.364;8.796;2023-12-28T05:18:45;1.30;99.90
17148;DHT22;8689;47.364;8.796;2023-12-28T05:21:13;1.30;99.90
17148;DHT22;8689;47.364;8.796;2023-12-28T05:23:41;1.30;99.90
17148;DHT22;8689;47.364;8.796;2023-12-28T05:26:08;1.20;99.90
17148;DHT22;8689;47.364;8.796;2023-12-28T05:28:35;1.30;99.90
17148;DHT22;8689;47.364;8.796;2023-12-28T05:31:02;1.30;99.90
17148;DHT22;8689;47.364;8.796;2023-12-28T05:33:30;1.40;99.90
17148;DHT22;8689;47.364;8.796;2023-12-28T05:36:00;1.60;99.90
17148;DHT22;8689;47.364;8.796;2023-12-28T05:38:27;1.60;99.90
17148;DHT22;8689;47.364;8.796;2023-12-28T05:40:55;1.60;99.90
17148;DHT22;8689;47.364;8.796;2023-12-28T05:43:22;1.60;99.90
17148;DHT22;8689;47.364;8.796;2023-12-28T05:45:49;1.50;99.90
17148;DHT22;8689;47.364;8.796;2023-12-28T05:48:16;1.50;99.90
17148;DHT22;8689;47.364;8.796;2023-12-28T05:50:44;1.70;99.90
17148;DHT22;8689;47.364;8.796;2023-12-28T05:53:13;1.80;99.90
17148;DHT22;8689;47.364;8.796;2023-12-28T05:55:41;2.10;99.90
17148;DHT22;8689;47.364;8.796;2023-12-28T05:58:10;2.20;99.90
17148;DHT22;8689;47.364;8.796;2023-12-28T06:00:37;2.30;99.90
17148;DHT22;8689;47.364;8.796;2023-12-28T06:03:05;2.30;99.90
17148;DHT22;8689;47.364;8.796;2023-12-28T06:05:33;2.30;99.90
17148;DHT22;8689;47.364;8.796;2023-12-28T06:08:00;2.20;99.90
17148;DHT22;8689;47.364;8.796;2023-12-28T06:10:29;2.20;99.90
17148;DHT22;8689;47.364;8.796;2023-12-28T06:12:57;2.20;99.90
17148;DHT22;8689;47.364;8.796;2023-12-28T06:15:24;2.30;99.90
17148;DHT22;8689;47.364;8.796;2023-12-28T06:17:51;2.30;99.90
17148;DHT22;8689;47.364;8.796;2023-12-28T06:20:18;2.10;99.90
17148;DHT22;8689;47.364;8.796;2023-12-28T06:22:46;2.00;99.90
17148;DHT22;8689;47.364;8.796;2023-12-28T06:25:33;1.90;99.90
17148;DHT22;8689;47.364;8.796;2023-12-28T06:28:03;1.80;99.90
17148;DHT22;8689;47.364;8.796;2023-12-28T06:30:30;1.70;99.90
17148;DHT22;8689;47.364;8.796;2023-12-28T06:32:57;1.70;99.90
17148;DHT22;8689;47.364;8.796;2023-12-28T06:35:25;1.70;99.90
17148;DHT22;8689;47.364;8.796;2023-12-28T06:37:52;1.70;99.90
17148;DHT22;8689;47.364;8.796;2023-12-28T06:40:19;1.80;99.90
17148;DHT22;8689;47.364;8.796;2023-12-28T06:42:48;1.80;99.90
17148;DHT22;8689;47.364;8.796;2023-12-28T06:45:17;1.80;99.90
17148;DHT22;8689;47.364;8.796;2023-12-28T06:47:44;1.70;99.90
17148;DHT22;8689;47.364;8.796;2023-12-28T06:50:12;1.70;99.90
17148;DHT22;8689;47.364;8.796;2023-12-28T06:52:39;1.60;99.90
17148;DHT22;8689;47.364;8.796;2023-12-28T06:55:07;1.60;99.90
17148;DHT22;8689;47.364;8.796;2023-12-28T06:57:34;1.50;99.90
17148;DHT22;8689;47.364;8.796;2023-12-28T07:00:03;1.40;99.90
17148;DHT22;8689;47.364;8.796;2023-12-28T07:02:31;1.40;99.90
17148;DHT22;8689;47.364;8.796;2023-12-28T07:04:58;1.50;99.90
17148;DHT22;8689;47.364;8.796;2023-12-28T07:07:25;1.60;99.90
17148;DHT22;8689;47.364;8.796;2023-12-28T07:09:53;1.60;99.90
17148;DHT22;8689;47.364;8.796;2023-12-28T07:12:20;1.70;99.90
17148;DHT22;8689;47.364;8.796;2023-12-28T07:14:48;1.70;99.90
17148;DHT22;8689;47.364;8.796;2023-12-28T07:17:17;1.80;99.90
17148;DHT22;8689;47.364;8.796;2023-12-28T07:19:44;1.90;99.90
17148;DHT22;8689;47.364;8.796;2023-12-28T07:22:11;1.90;99.90
17148;DHT22;8689;47.364;8.796;2023-12-28T07:24:38;1.90;99.90
17148;DHT22;8689;47.364;8.796;2023-12-28T07:27:05;1.90;99.90
17148;DHT22;8689;47.364;8.796;2023-12-28T07:29:32;2.00;99.90
17148;DHT22;8689;47.364;8.796;2023-12-28T07:31:59;2.00;99.90
17148;DHT22;8689;47.364;8.796;2023-12-28T07:34:28;2.00;99.90
17148;DHT22;8689;47.364;8.796;2023-12-28T07:36:55;2.00;99.90
17148;DHT22;8689;47.364;8.796;2023-12-28T07:39:22;2.00;99.90
17148;DHT22;8689;47.364;8.796;2023-12-28T07:41:49;2.00;99.90
17148;DHT22;8689;47.364;8.796;2023-12-28T07:44:16;1.90;99.90
17148;DHT22;8689;47.364;8.796;2023-12-28T07:46:44;1.90;99.90
17148;DHT22;8689;47.364;8.796;2023-12-28T07:49:11;1.80;99.90
17148;DHT22;8689;47.364;8.796;2023-12-28T07:51:41;1.80;99.90
17148;DHT22;8689;47.364;8.796;2023-12-28T07:54:08;1.80;99.90
17148;DHT22;8689;47.364;8.796;2023-12-28T07:56:35;1.80;99.90
17148;DHT22;8689;47.364;8.796;2023-12-28T07:59:03;1.90;99.90
17148;DHT22;8689;47.364;8.796;2023-12-28T08:01:31;1.90;99.90
17148;DHT22;8689;47.364;8.796;2023-12-28T08:03:59;1.90;99.90
17148;DHT22;8689;47.364;8.796;2023-12-28T08:06:27;1.90;99.90
17148;DHT22;8689;47.364;8.796;2023-12-28T08:08:58;1.90;99.90
17148;DHT22;8689;47.364;8.796;2023-12-28T08:11:26;2.00;99.90
17148;DHT22;8689;47.364;8.796;2023-12-28T08:13:53;2.00;99.90
17148;DHT22;8689;47.364;8.796;2023-12-28T08:16:21;2.10;99.90
17148;DHT22;8689;47.364;8.796;2023-12-28T08:18:48;2.20;99.90
17148;DHT22;8689;47.364;8.796;2023-12-28T08:21:15;2.20;99.90
17148;DHT22;8689;47.364;8.796;2023-12-28T08:23:42;2.30;99.90
17148;DHT22;8689;47.364;8.796;2023-12-28T08:26:11;2.30;99.90
17148;DHT22;8689;47.364;8.796;2023-12-28T08:28:38;2.40;99.90
17148;DHT22;8689;47.364;8.796;2023-12-28T08:31:05;2.40;99.90
17148;DHT22;8689;47.364;8.796;2023-12-28T08:33:34;2.60;99.90
17148;DHT22;8689;47.364;8.796;2023-12-28T08:36:03;2.60;99.90
17148;DHT22;8689;47.364;8.796;2023-12-28T08:38:31;2.70;99.90
17148;DHT22;8689;47.364;8.796;2023-12-28T08:40:58;2.90;99.90
17148;DHT22;8689;47.364;8.796;2023-12-28T08:43:26;3.00;99.90
17148;DHT22;8689;47.364;8.796;2023-12-28T08:45:54;3.10;99.90
17148;DHT22;8689;47.364;8.796;2023-12-28T08:48:21;3.20;99.90
17148;DHT22;8689;47.364;8.796;2023-12-28T08:50:49;3.40;99.90
17148;DHT22;8689;47.364;8.796;2023-12-28T08:53:16;3.50;99.90
17148;DHT22;8689;47.364;8.796;2023-12-28T08:55:44;3.60;99.90
17148;DHT22;8689;47.364;8.796;2023-12-28T08:58:12;3.70;99.90
17148;DHT22;8689;47.364;8.796;2023-12-28T09:00:42;3.80;99.90
17148;DHT22;8689;47.364;8.796;2023-12-28T09:03:11;3.80;99.90
17148;DHT22;8689;47.364;8.796;2023-12-28T09:05:38;3.90;99.90
17148;DHT22;8689;47.364;8.796;2023-12-28T09:08:06;4.00;99.90
17148;DHT22;8689;47.364;8.796;2023-12-28T09:10:35;4.00;99.90
17148;DHT22;8689;47.364;8.796;2023-12-28T09:13:04;4.10;99.90
17148;DHT22;8689;47.364;8.796;2023-12-28T09:15:31;4.10;99.90
17148;DHT22;8689;47.364;8.796;2023-12-28T09:18:00;4.20;99.90
17148;DHT22;8689;47.364;8.796;2023-12-28T09:20:28;4.30;99.90
17148;DHT22;8689;47.364;8.796;2023-12-28T09:22:55;4.40;99.90
17148;DHT22;8689;47.364;8.796;2023-12-28T09:25:22;4.50;99.90
17148;DHT22;8689;47.364;8.796;2023-12-28T09:27:51;4.70;99.90
17148;DHT22;8689;47.364;8.796;2023-12-28T09:30:19;4.80;99.90
17148;DHT22;8689;47.364;8.796;2023-12-28T09:32:46;4.90;99.90
17148;DHT22;8689;47.364;8.796;2023-12-28T09:35:15;4.90;99.90
17148;DHT22;8689;47.364;8.796;2023-12-28T09:37:42;4.90;99.90
17148;DHT22;8689;47.364;8.796;2023-12-28T09:40:09;5.00;99.90
17148;DHT22;8689;47.364;8.796;2023-12-28T09:42:43;4.90;99.90
17148;DHT22;8689;47.364;8.796;2023-12-28T09:45:12;4.90;99.90
17148;DHT22;8689;47.364;8.796;2023-12-28T09:47:41;4.90;99.90
17148;DHT22;8689;47.364;8.796;2023-12-28T09:50:10;5.00;99.90
17148;DHT22;8689;47.364;8.796;2023-12-28T09:52:40;5.00;99.90
17148;DHT22;8689;47.364;8.796;2023-12-28T09:55:07;5.10;99.00
17148;DHT22;8689;47.364;8.796;2023-12-28T09:57:35;5.10;98.00
17148;DHT22;8689;47.364;8.796;2023-12-28T10:00:03;5.20;97.90
17148;DHT22;8689;47.364;8.796;2023-12-28T10:02:33;5.20;98.40
17148;DHT22;8689;47.364;8.796;2023-12-28T10:05:01;5.20;98.70
17148;DHT22;8689;47.364;8.796;2023-12-28T10:07:28;5.20;99.00
17148;DHT22;8689;47.364;8.796;2023-12-28T10:09:57;5.20;99.20
17148;DHT22;8689;47.364;8.796;2023-12-28T10:12:26;5.20;99.60
17148;DHT22;8689;47.364;8.796;2023-12-28T10:14:53;5.20;99.90
17148;DHT22;8689;47.364;8.796;2023-12-28T10:17:21;5.20;99.50
17148;DHT22;8689;47.364;8.796;2023-12-28T10:19:48;5.20;99.50
17148;DHT22;8689;47.364;8.796;2023-12-28T10:22:15;5.20;99.60
17148;DHT22;8689;47.364;8.796;2023-12-28T10:24:43;5.20;99.90
17148;DHT22;8689;47.364;8.796;2023-12-28T10:27:11;5.30;99.90
17148;DHT22;8689;47.364;8.796;2023-12-28T10:29:39;5.20;99.90
17148;DHT22;8689;47.364;8.796;2023-12-28T10:32:07;5.30;99.90
17148;DHT22;8689;47.364;8.796;2023-12-28T10:34:35;5.30;99.90
17148;DHT22;8689;47.364;8.796;2023-12-28T10:37:03;5.30;99.90
17148;DHT22;8689;47.364;8.796;2023-12-28T10:39:32;5.40;99.90
17148;DHT22;8689;47.364;8.796;2023-12-28T10:42:04;5.40;99.90
17148;DHT22;8689;47.364;8.796;2023-12-28T10:44:38;5.50;99.90
17148;DHT22;8689;47.364;8.796;2023-12-28T10:47:15;5.50;99.90
17148;DHT22;8689;47.364;8.796;2023-12-28T10:49:44;5.60;99.90
17148;DHT22;8689;47.364;8.796;2023-12-28T10:52:16;5.70;99.90
17148;DHT22;8689;47.364;8.796;2023-12-28T10:54:49;5.80;99.90
17148;DHT22;8689;47.364;8.796;2023-12-28T10:57:23;6.00;99.90
17148;DHT22;8689;47.364;8.796;2023-12-28T11:00:09;6.00;99.90
17148;DHT22;8689;47.364;8.796;2023-12-28T11:02:38;6.10;99.00
17148;DHT22;8689;47.364;8.796;2023-12-28T11:05:07;6.10;98.10
17148;DHT22;8689;47.364;8.796;2023-12-28T11:07:36;6.20;96.60
17148;DHT22;8689;47.364;8.796;2023-12-28T11:10:05;6.30;96.80
17148;DHT22;8689;47.364;8.796;2023-12-28T11:12:33;6.30;98.80
17148;DHT22;8689;47.364;8.796;2023-12-28T11:15:02;6.40;99.40
17148;DHT22;8689;47.364;8.796;2023-12-28T11:17:31;6.50;98.90
17148;DHT22;8689;47.364;8.796;2023-12-28T11:20:02;6.60;96.50
17148;DHT22;8689;47.364;8.796;2023-12-28T11:22:31;6.70;95.80
17148;DHT22;8689;47.364;8.796;2023-12-28T11:24:59;6.70;96.20
17148;DHT22;8689;47.364;8.796;2023-12-28T11:27:33;6.80;95.30
17148;DHT22;8689;47.364;8.796;2023-12-28T11:30:04;6.90;95.30
17148;DHT22;8689;47.364;8.796;2023-12-28T11:32:33;7.00;95.00
17148;DHT22;8689;47.364;8.796;2023-12-28T11:35:01;7.10;95.90
17148;DHT22;8689;47.364;8.796;2023-12-28T11:37:29;7.30;96.40
17148;DHT22;8689;47.364;8.796;2023-12-28T11:39:57;7.40;97.50
17148;DHT22;8689;47.364;8.796;2023-12-28T11:42:27;7.50;98.10
17148;DHT22;8689;47.364;8.796;2023-12-28T11:44:55;7.60;94.20
17148;DHT22;8689;47.364;8.796;2023-12-28T11:47:25;7.70;94.30
17148;DHT22;8689;47.364;8.796;2023-12-28T11:49:52;7.80;94.20
17148;DHT22;8689;47.364;8.796;2023-12-28T11:52:24;7.90;92.80
17148;DHT22;8689;47.364;8.796;2023-12-28T11:54:51;8.10;92.20
17148;DHT22;8689;47.364;8.796;2023-12-28T11:57:19;8.10;92.90
17148;DHT22;8689;47.364;8.796;2023-12-28T11:59:47;8.20;93.50
17148;DHT22;8689;47.364;8.796;2023-12-28T12:02:14;8.30;94.00
17148;DHT22;8689;47.364;8.796;2023-12-28T12:04:43;8.40;92.60
17148;DHT22;8689;47.364;8.796;2023-12-28T12:07:10;8.40;94.10
17148;DHT22;8689;47.364;8.796;2023-12-28T12:09:37;8.50;94.30
17148;DHT22;8689;47.364;8.796;2023-12-28T12:12:06;8.60;94.70
17148;DHT22;8689;47.364;8.796;2023-12-28T12:14:34;8.60;96.00
17148;DHT22;8689;47.364;8.796;2023-12-28T12:17:03;8.70;91.70
17148;DHT22;8689;47.364;8.796;2023-12-28T12:19:30;8.80;93.80
17148;DHT22;8689;47.364;8.796;2023-12-28T12:21:59;8.80;93.40
17148;DHT22;8689;47.364;8.796;2023-12-28T12:24:26;8.90;93.30
17148;DHT22;8689;47.364;8.796;2023-12-28T12:26:53;8.90;93.00
17148;DHT22;8689;47.364;8.796;2023-12-28T12:29:20;8.90;94.30
17148;DHT22;8689;47.364;8.796;2023-12-28T12:31:48;8.90;95.00
17148;DHT22;8689;47.364;8.796;2023-12-28T12:34:17;8.90;95.80
17148;DHT22;8689;47.364;8.796;2023-12-28T12:36:44;8.90;92.40
17148;DHT22;8689;47.364;8.796;2023-12-28T12:39:13;9.00;90.50
17148;DHT22;8689;47.364;8.796;2023-12-28T12:41:40;9.00;89.70
17148;DHT22;8689;47.364;8.796;2023-12-28T12:44:08;9.00;88.90
17148;DHT22;8689;47.364;8.796;2023-12-28T12:46:36;9.10;90.70
17148;DHT22;8689;47.364;8.796;2023-12-28T12:49:05;9.10;89.00
17148;DHT22;8689;47.364;8.796;2023-12-28T12:51:32;9.20;88.30
17148;DHT22;8689;47.364;8.796;2023-12-28T12:54:02;9.20;90.20
17148;DHT22;8689;47.364;8.796;2023-12-28T12:56:31;9.20;89.40
17148;DHT22;8689;47.364;8.796;2023-12-28T12:58:58;9.10;90.10
17148;DHT22;8689;47.364;8.796;2023-12-28T13:01:26;9.10;91.00
17148;DHT22;8689;47.364;8.796;2023-12-28T13:03:54;9.20;89.60
17148;DHT22;8689;47.364;8.796;2023-12-28T13:06:22;9.10;90.10
17148;DHT22;8689;47.364;8.796;2023-12-28T13:08:49;9.10;90.10
17148;DHT22;8689;47.364;8.796;2023-12-28T13:11:17;9.10;87.50
17148;DHT22;8689;47.364;8.796;2023-12-28T13:13:50;9.10;86.60
17148;DHT22;8689;47.364;8.796;2023-12-28T13:16:18;9.10;85.10
17148;DHT22;8689;47.364;8.796;2023-12-28T13:18:45;9.10;84.70
17148;DHT22;8689;47.364;8.796;2023-12-28T13:21:13;9.00;86.00
17148;DHT22;8689;47.364;8.796;2023-12-28T13:23:40;8.90;86.20
17148;DHT22;8689;47.364;8.796;2023-12-28T13:26:07;8.80;87.90
17148;DHT22;8689;47.364;8.796;2023-12-28T13:28:34;8.70;87.50
17148;DHT22;8689;47.364;8.796;2023-12-28T13:31:03;8.60;88.90
17148;DHT22;8689;47.364;8.796;2023-12-28T13:33:30;8.50;90.00
17148;DHT22;8689;47.364;8.796;2023-12-28T13:35:57;8.50;90.10
17148;DHT22;8689;47.364;8.796;2023-12-28T13:38:25;8.40;90.10
17148;DHT22;8689;47.364;8.796;2023-12-28T13:40:53;8.40;90.40
17148;DHT22;8689;47.364;8.796;2023-12-28T13:43:21;8.30;92.50
17148;DHT22;8689;47.364;8.796;2023-12-28T13:46:05;8.30;94.00
17148;DHT22;8689;47.364;8.796;2023-12-28T13:48:32;8.20;93.20
17148;DHT22;8689;47.364;8.796;2023-12-28T13:51:00;8.10;94.00
17148;DHT22;8689;47.364;8.796;2023-12-28T13:53:28;8.10;94.70
17148;DHT22;8689;47.364;8.796;2023-12-28T13:55:57;8.10;95.10
17148;DHT22;8689;47.364;8.796;2023-12-28T13:58:24;8.00;95.70
17148;DHT22;8689;47.364;8.796;2023-12-28T14:00:51;8.00;93.40
17148;DHT22;8689;47.364;8.796;2023-12-28T14:03:20;8.00;91.40
17148;DHT22;8689;47.364;8.796;2023-12-28T14:05:47;7.90;92.30
17148;DHT22;8689;47.364;8.796;2023-12-28T14:08:16;7.90;92.70
17148;DHT22;8689;47.364;8.796;2023-12-28T14:10:43;7.90;93.30
17148;DHT22;8689;47.364;8.796;2023-12-28T14:13:10;7.80;92.80
17148;DHT22;8689;47.364;8.796;2023-12-28T14:15:37;7.80;92.40
17148;DHT22;8689;47.364;8.796;2023-12-28T14:18:05;7.80;92.00
17148;DHT22;8689;47.364;8.796;2023-12-28T14:20:36;7.70;92.70
17148;DHT22;8689;47.364;8.796;2023-12-28T14:23:03;7.60;93.20
17148;DHT22;8689;47.364;8.796;2023-12-28T14:25:31;7.60;94.60
17148;DHT22;8689;47.364;8.796;2023-12-28T14:27:59;7.50;93.20
17148;DHT22;8689;47.364;8.796;2023-12-28T14:30:26;7.50;93.20
17148;DHT22;8689;47.364;8.796;2023-12-28T14:32:54;7.50;93.20
17148;DHT22;8689;47.364;8.796;2023-12-28T14:35:23;7.50;93.20
17148;DHT22;8689;47.364;8.796;2023-12-28T14:37:52;7.50;94.40
17148;DHT22;8689;47.364;8.796;2023-12-28T14:40:19;7.40;94.40
17148;DHT22;8689;47.364;8.796;2023-12-28T14:42:46;7.40;94.70
17148;DHT22;8689;47.364;8.796;2023-12-28T14:45:14;7.40;95.20
17148;DHT22;8689;47.364;8.796;2023-12-28T14:47:43;7.40;96.60
17148;DHT22;8689;47.364;8.796;2023-12-28T14:50:11;7.30;97.00
17148;DHT22;8689;47.364;8.796;2023-12-28T14:52:39;7.30;97.10
17148;DHT22;8689;47.364;8.796;2023-12-28T14:55:10;7.20;96.80
17148;DHT22;8689;47.364;8.796;2023-12-28T14:57:38;7.10;96.70
17148;DHT22;8689;47.364;8.796;2023-12-28T15:00:08;7.10;96.10
17148;DHT22;8689;47.364;8.796;2023-12-28T15:02:35;7.10;95.10
17148;DHT22;8689;47.364;8.796;2023-12-28T15:05:03;7.10;94.70
17148;DHT22;8689;47.364;8.796;2023-12-28T15:07:30;7.20;94.70
17148;DHT22;8689;47.364;8.796;2023-12-28T15:09:58;7.20;93.70
17148;DHT22;8689;47.364;8.796;2023-12-28T15:12:28;7.20;93.40
17148;DHT22;8689;47.364;8.796;2023-12-28T15:14:55;7.30;93.80
17148;DHT22;8689;47.364;8.796;2023-12-28T15:17:24;7.30;95.40
17148;DHT22;8689;47.364;8.796;2023-12-28T15:19:52;7.20;96.90
17148;DHT22;8689;47.364;8.796;2023-12-28T15:22:21;7.10;96.50
17148;DHT22;8689;47.364;8.796;2023-12-28T15:24:49;7.00;97.90
17148;DHT22;8689;47.364;8.796;2023-12-28T15:27:17;6.90;98.40
17148;DHT22;8689;47.364;8.796;2023-12-28T15:29:45;6.80;99.10
17148;DHT22;8689;47.364;8.796;2023-12-28T15:32:13;6.80;99.90
17148;DHT22;8689;47.364;8.796;2023-12-28T15:34:40;6.70;99.90
17148;DHT22;8689;47.364;8.796;2023-12-28T15:37:07;6.60;99.90
17148;DHT22;8689;47.364;8.796;2023-12-28T15:39:35;6.50;99.90
17148;DHT22;8689;47.364;8.796;2023-12-28T15:42:19;6.40;99.90
17148;DHT22;8689;47.364;8.796;2023-12-28T15:44:51;6.40;99.90
17148;DHT22;8689;47.364;8.796;2023-12-28T15:47:18;6.30;99.90
17148;DHT22;8689;47.364;8.796;2023-12-28T15:49:45;6.20;99.90
17148;DHT22;8689;47.364;8.796;2023-12-28T15:52:13;6.20;99.90
17148;DHT22;8689;47.364;8.796;2023-12-28T15:54:41;6.10;99.90
17148;DHT22;8689;47.364;8.796;2023-12-28T15:57:09;6.00;99.90
17148;DHT22;8689;47.364;8.796;2023-12-28T15:59:37;6.00;99.90
17148;DHT22;8689;47.364;8.796;2023-12-28T16:02:08;6.00;99.90
17148;DHT22;8689;47.364;8.796;2023-12-28T16:04:35;6.00;99.90
17148;DHT22;8689;47.364;8.796;2023-12-28T16:07:09;6.00;99.90